sensor_id;sensor_type;location;lat;lon;timestamp;P1;durP1;ratioP1;P2;durP2;ratioP2
21215;SDS011;10765;50.954;5.322;2023-08-07T00:00:42;8.03;;;3.43;;
21215;SDS011;10765;50.954;5.322;2023-08-07T00:03:09;7.43;;;3.50;;
21215;SDS011;10765;50.954;5.322;2023-08-07T00:05:44;10.37;;;3.30;;
21215;SDS011;10765;50.954;5.322;2023-08-07T00:08:11;8.17;;;3.10;;
21215;SDS011;10765;50.954;5.322;2023-08-07T00:10:39;5.20;;;2.80;;
21215;SDS011;10765;50.954;5.322;2023-08-07T00:13:06;11.87;;;3.30;;
21215;SDS011;10765;50.954;5.322;2023-08-07T00:15:33;11.57;;;3.30;;
21215;SDS011;10765;50.954;5.322;2023-08-07T00:18:00;12.33;;;3.77;;
21215;SDS011;10765;50.954;5.322;2023-08-07T00:20:27;7.80;;;3.00;;
21215;SDS011;10765;50.954;5.322;2023-08-07T00:22:54;9.63;;;3.40;;
21215;SDS011;10765;50.954;5.322;2023-08-07T00:25:20;12.93;;;3.03;;
21215;SDS011;10765;50.954;5.322;2023-08-07T00:27:49;6.87;;;3.20;;
21215;SDS011;10765;50.954;5.322;2023-08-07T00:30:16;6.10;;;2.90;;
21215;SDS011;10765;50.954;5.322;2023-08-07T00:32:42;9.73;;;3.07;;
21215;SDS011;10765;50.954;5.322;2023-08-07T00:35:09;8.87;;;3.60;;
21215;SDS011;10765;50.954;5.322;2023-08-07T00:37:36;10.43;;;3.03;;
21215;SDS011;10765;50.954;5.322;2023-08-07T00:40:03;8.87;;;3.40;;
21215;SDS011;10765;50.954;5.322;2023-08-07T00:42:31;8.60;;;3.50;;
21215;SDS011;10765;50.954;5.322;2023-08-07T00:44:59;8.80;;;2.97;;
21215;SDS011;10765;50.954;5.322;2023-08-07T00:47:28;10.00;;;3.10;;
21215;SDS011;10765;50.954;5.322;2023-08-07T00:49:55;9.63;;;2.60;;
21215;SDS011;10765;50.954;5.322;2023-08-07T00:52:23;8.37;;;3.43;;
21215;SDS011;10765;50.954;5.322;2023-08-07T00:54:50;7.47;;;2.97;;
21215;SDS011;10765;50.954;5.322;2023-08-07T00:57:17;7.90;;;3.20;;
21215;SDS011;10765;50.954;5.322;2023-08-07T00:59:47;9.60;;;3.33;;
21215;SDS011;10765;50.954;5.322;2023-08-07T01:02:16;7.73;;;3.10;;
21215;SDS011;10765;50.954;5.322;2023-08-07T01:04:43;6.13;;;3.03;;
21215;SDS011;10765;50.954;5.322;2023-08-07T01:07:10;7.80;;;2.80;;
21215;SDS011;10765;50.954;5.322;2023-08-07T01:09:37;8.23;;;3.00;;
21215;SDS011;10765;50.954;5.322;2023-08-07T01:12:07;7.20;;;3.07;;
21215;SDS011;10765;50.954;5.322;2023-08-07T01:14:49;8.83;;;3.00;;
21215;SDS011;10765;50.954;5.322;2023-08-07T01:17:21;11.67;;;3.50;;
21215;SDS011;10765;50.954;5.322;2023-08-07T01:19:49;4.97;;;3.17;;
21215;SDS011;10765;50.954;5.322;2023-08-07T01:22:19;7.63;;;3.10;;
21215;SDS011;10765;50.954;5.322;2023-08-07T01:24:46;11.37;;;3.23;;
21215;SDS011;10765;50.954;5.322;2023-08-07T01:27:19;7.20;;;3.10;;
21215;SDS011;10765;50.954;5.322;2023-08-07T01:29:57;7.53;;;3.00;;
21215;SDS011;10765;50.954;5.322;2023-08-07T01:32:30;7.80;;;2.83;;
21215;SDS011;10765;50.954;5.322;2023-08-07T01:35:02;5.93;;;2.80;;
21215;SDS011;10765;50.954;5.322;2023-08-07T01:37:33;8.50;;;3.07;;
21215;SDS011;10765;50.954;5.322;2023-08-07T01:40:05;11.90;;;3.07;;
21215;SDS011;10765;50.954;5.322;2023-08-07T01:42:34;8.83;;;3.30;;
21215;SDS011;10765;50.954;5.322;2023-08-07T01:45:01;8.47;;;2.93;;
21215;SDS011;10765;50.954;5.322;2023-08-07T01:47:28;8.33;;;3.13;;
21215;SDS011;10765;50.954;5.322;2023-08-07T01:49:55;8.10;;;2.77;;
21215;SDS011;10765;50.954;5.322;2023-08-07T01:52:22;8.50;;;3.30;;
21215;SDS011;10765;50.954;5.322;2023-08-07T01:54:51;7.37;;;3.20;;
21215;SDS011;10765;50.954;5.322;2023-08-07T01:57:17;7.40;;;2.87;;
21215;SDS011;10765;50.954;5.322;2023-08-07T01:59:44;11.63;;;3.37;;
21215;SDS011;10765;50.954;5.322;2023-08-07T02:02:11;9.13;;;3.50;;
21215;SDS011;10765;50.954;5.322;2023-08-07T02:04:38;6.27;;;3.07;;
21215;SDS011;10765;50.954;5.322;2023-08-07T02:07:05;8.10;;;2.87;;
21215;SDS011;10765;50.954;5.322;2023-08-07T02:09:32;9.27;;;3.33;;
21215;SDS011;10765;50.954;5.322;2023-08-07T02:12:00;9.73;;;2.67;;
21215;SDS011;10765;50.954;5.322;2023-08-07T02:14:28;6.70;;;2.90;;
21215;SDS011;10765;50.954;5.322;2023-08-07T02:16:55;6.10;;;2.87;;
21215;SDS011;10765;50.954;5.322;2023-08-07T02:19:22;7.83;;;2.73;;
21215;SDS011;10765;50.954;5.322;2023-08-07T02:21:49;9.17;;;3.27;;
21215;SDS011;10765;50.954;5.322;2023-08-07T02:24:15;7.90;;;3.00;;
21215;SDS011;10765;50.954;5.322;2023-08-07T02:26:43;6.17;;;2.80;;
21215;SDS011;10765;50.954;5.322;2023-08-07T02:29:11;7.83;;;3.00;;
21215;SDS011;10765;50.954;5.322;2023-08-07T02:31:38;9.50;;;3.33;;
21215;SDS011;10765;50.954;5.322;2023-08-07T02:34:05;7.30;;;3.40;;
21215;SDS011;10765;50.954;5.322;2023-08-07T02:36:32;10.93;;;3.20;;
21215;SDS011;10765;50.954;5.322;2023-08-07T02:38:58;7.83;;;3.00;;
21215;SDS011;10765;50.954;5.322;2023-08-07T02:41:25;7.03;;;3.23;;
21215;SDS011;10765;50.954;5.322;2023-08-07T02:43:52;9.00;;;2.80;;
21215;SDS011;10765;50.954;5.322;2023-08-07T02:46:21;7.17;;;3.07;;
21215;SDS011;10765;50.954;5.322;2023-08-07T02:48:47;7.27;;;3.00;;
21215;SDS011;10765;50.954;5.322;2023-08-07T02:51:14;9.07;;;2.90;;
21215;SDS011;10765;50.954;5.322;2023-08-07T02:53:41;8.10;;;3.30;;
21215;SDS011;10765;50.954;5.322;2023-08-07T02:56:08;7.60;;;2.53;;
21215;SDS011;10765;50.954;5.322;2023-08-07T02:58:35;8.80;;;3.30;;
21215;SDS011;10765;50.954;5.322;2023-08-07T03:01:03;10.27;;;3.47;;
21215;SDS011;10765;50.954;5.322;2023-08-07T03:03:32;10.03;;;2.60;;
21215;SDS011;10765;50.954;5.322;2023-08-07T03:05:59;10.70;;;3.50;;
21215;SDS011;10765;50.954;5.322;2023-08-07T03:08:26;6.93;;;2.80;;
21215;SDS011;10765;50.954;5.322;2023-08-07T03:10:54;8.20;;;3.07;;
21215;SDS011;10765;50.954;5.322;2023-08-07T03:13:21;6.97;;;2.50;;
21215;SDS011;10765;50.954;5.322;2023-08-07T03:15:49;7.43;;;2.63;;
21215;SDS011;10765;50.954;5.322;2023-08-07T03:18:16;6.70;;;2.93;;
21215;SDS011;10765;50.954;5.322;2023-08-07T03:20:44;7.17;;;3.10;;
21215;SDS011;10765;50.954;5.322;2023-08-07T03:23:12;7.33;;;2.40;;
21215;SDS011;10765;50.954;5.322;2023-08-07T03:25:39;6.70;;;2.40;;
21215;SDS011;10765;50.954;5.322;2023-08-07T03:28:06;6.83;;;2.60;;
21215;SDS011;10765;50.954;5.322;2023-08-07T03:30:33;8.57;;;2.47;;
21215;SDS011;10765;50.954;5.322;2023-08-07T03:33:00;6.50;;;2.77;;
21215;SDS011;10765;50.954;5.322;2023-08-07T03:35:27;5.53;;;3.00;;
21215;SDS011;10765;50.954;5.322;2023-08-07T03:37:55;9.00;;;2.80;;
21215;SDS011;10765;50.954;5.322;2023-08-07T03:40:22;6.50;;;2.50;;
21215;SDS011;10765;50.954;5.322;2023-08-07T03:42:49;7.70;;;3.00;;
21215;SDS011;10765;50.954;5.322;2023-08-07T03:45:16;5.13;;;2.50;;
21215;SDS011;10765;50.954;5.322;2023-08-07T03:47:42;8.20;;;2.43;;
21215;SDS011;10765;50.954;5.322;2023-08-07T03:50:09;8.00;;;2.60;;
21215;SDS011;10765;50.954;5.322;2023-08-07T03:52:36;11.23;;;2.80;;
21215;SDS011;10765;50.954;5.322;2023-08-07T03:55:05;6.70;;;2.20;;
21215;SDS011;10765;50.954;5.322;2023-08-07T03:57:32;7.30;;;2.47;;
21215;SDS011;10765;50.954;5.322;2023-08-07T03:59:59;6.87;;;2.30;;
21215;SDS011;10765;50.954;5.322;2023-08-07T04:02:26;7.87;;;2.63;;
21215;SDS011;10765;50.954;5.322;2023-08-07T04:04:54;7.13;;;2.43;;
21215;SDS011;10765;50.954;5.322;2023-08-07T04:07:21;7.30;;;2.57;;
21215;SDS011;10765;50.954;5.322;2023-08-07T04:09:48;5.50;;;2.00;;
21215;SDS011;10765;50.954;5.322;2023-08-07T04:12:17;6.43;;;2.30;;
21215;SDS011;10765;50.954;5.322;2023-08-07T04:14:43;6.63;;;2.40;;
21215;SDS011;10765;50.954;5.322;2023-08-07T04:17:10;7.80;;;2.60;;
21215;SDS011;10765;50.954;5.322;2023-08-07T04:19:37;5.93;;;2.40;;
21215;SDS011;10765;50.954;5.322;2023-08-07T04:22:04;6.67;;;2.87;;
21215;SDS011;10765;50.954;5.322;2023-08-07T04:24:31;7.30;;;2.50;;
21215;SDS011;10765;50.954;5.322;2023-08-07T04:26:58;5.63;;;2.67;;
21215;SDS011;10765;50.954;5.322;2023-08-07T04:29:26;4.57;;;2.30;;
21215;SDS011;10765;50.954;5.322;2023-08-07T04:31:53;5.20;;;2.50;;
21215;SDS011;10765;50.954;5.322;2023-08-07T04:34:20;7.57;;;2.60;;
21215;SDS011;10765;50.954;5.322;2023-08-07T04:36:47;4.93;;;2.27;;
21215;SDS011;10765;50.954;5.322;2023-08-07T04:39:15;6.60;;;2.80;;
21215;SDS011;10765;50.954;5.322;2023-08-07T04:41:43;6.07;;;2.50;;
21215;SDS011;10765;50.954;5.322;2023-08-07T04:44:10;6.17;;;2.37;;
21215;SDS011;10765;50.954;5.322;2023-08-07T04:46:38;6.93;;;2.57;;
21215;SDS011;10765;50.954;5.322;2023-08-07T04:49:06;6.03;;;2.77;;
21215;SDS011;10765;50.954;5.322;2023-08-07T04:51:33;4.60;;;2.47;;
21215;SDS011;10765;50.954;5.322;2023-08-07T04:54:00;7.37;;;2.60;;
21215;SDS011;10765;50.954;5.322;2023-08-07T04:56:27;6.03;;;2.83;;
21215;SDS011;10765;50.954;5.322;2023-08-07T04:58:54;7.27;;;2.77;;
21215;SDS011;10765;50.954;5.322;2023-08-07T05:01:20;5.37;;;2.63;;
21215;SDS011;10765;50.954;5.322;2023-08-07T05:03:49;7.13;;;2.37;;
21215;SDS011;10765;50.954;5.322;2023-08-07T05:06:16;6.80;;;3.00;;
21215;SDS011;10765;50.954;5.322;2023-08-07T05:08:44;5.90;;;2.20;;
21215;SDS011;10765;50.954;5.322;2023-08-07T05:11:11;6.83;;;2.97;;
21215;SDS011;10765;50.954;5.322;2023-08-07T05:13:38;5.13;;;2.40;;
21215;SDS011;10765;50.954;5.322;2023-08-07T05:16:04;5.40;;;2.17;;
21215;SDS011;10765;50.954;5.322;2023-08-07T05:18:31;6.13;;;2.13;;
21215;SDS011;10765;50.954;5.322;2023-08-07T05:21:00;4.70;;;2.03;;
21215;SDS011;10765;50.954;5.322;2023-08-07T05:23:26;5.47;;;2.37;;
21215;SDS011;10765;50.954;5.322;2023-08-07T05:25:53;5.50;;;2.30;;
21215;SDS011;10765;50.954;5.322;2023-08-07T05:28:20;6.77;;;2.30;;
21215;SDS011;10765;50.954;5.322;2023-08-07T05:30:47;6.10;;;2.40;;
21215;SDS011;10765;50.954;5.322;2023-08-07T05:33:14;6.77;;;2.37;;
21215;SDS011;10765;50.954;5.322;2023-08-07T05:35:41;4.63;;;2.30;;
21215;SDS011;10765;50.954;5.322;2023-08-07T05:38:10;4.00;;;2.13;;
21215;SDS011;10765;50.954;5.322;2023-08-07T05:40:37;6.13;;;2.10;;
21215;SDS011;10765;50.954;5.322;2023-08-07T05:43:04;4.77;;;2.33;;
21215;SDS011;10765;50.954;5.322;2023-08-07T05:45:31;5.97;;;2.50;;
21215;SDS011;10765;50.954;5.322;2023-08-07T05:47:58;5.93;;;2.10;;
21215;SDS011;10765;50.954;5.322;2023-08-07T05:50:25;4.00;;;2.33;;
21215;SDS011;10765;50.954;5.322;2023-08-07T05:52:52;7.07;;;2.37;;
21215;SDS011;10765;50.954;5.322;2023-08-07T05:55:20;7.30;;;2.50;;
21215;SDS011;10765;50.954;5.322;2023-08-07T05:57:47;6.50;;;2.13;;
21215;SDS011;10765;50.954;5.322;2023-08-07T06:00:15;4.87;;;2.30;;
21215;SDS011;10765;50.954;5.322;2023-08-07T06:02:44;4.00;;;2.10;;
21215;SDS011;10765;50.954;5.322;2023-08-07T06:05:11;5.40;;;2.27;;
21215;SDS011;10765;50.954;5.322;2023-08-07T06:07:39;8.80;;;6.97;;
21215;SDS011;10765;50.954;5.322;2023-08-07T06:10:07;5.80;;;2.60;;
21215;SDS011;10765;50.954;5.322;2023-08-07T06:12:35;6.90;;;2.57;;
21215;SDS011;10765;50.954;5.322;2023-08-07T06:15:02;4.13;;;2.57;;
21215;SDS011;10765;50.954;5.322;2023-08-07T06:17:30;5.80;;;2.77;;
21215;SDS011;10765;50.954;5.322;2023-08-07T06:19:57;6.93;;;2.67;;
21215;SDS011;10765;50.954;5.322;2023-08-07T06:22:26;6.23;;;2.83;;
21215;SDS011;10765;50.954;5.322;2023-08-07T06:24:53;8.30;;;2.47;;
21215;SDS011;10765;50.954;5.322;2023-08-07T06:27:20;9.97;;;2.93;;
21215;SDS011;10765;50.954;5.322;2023-08-07T06:29:49;5.23;;;2.80;;
21215;SDS011;10765;50.954;5.322;2023-08-07T06:32:15;6.10;;;2.43;;
21215;SDS011;10765;50.954;5.322;2023-08-07T06:34:43;6.20;;;2.73;;
21215;SDS011;10765;50.954;5.322;2023-08-07T06:37:11;5.33;;;2.40;;
21215;SDS011;10765;50.954;5.322;2023-08-07T06:39:38;5.10;;;2.50;;
21215;SDS011;10765;50.954;5.322;2023-08-07T06:42:05;4.67;;;2.50;;
21215;SDS011;10765;50.954;5.322;2023-08-07T06:44:32;5.50;;;2.50;;
21215;SDS011;10765;50.954;5.322;2023-08-07T06:47:00;4.80;;;2.20;;
21215;SDS011;10765;50.954;5.322;2023-08-07T06:49:27;6.13;;;2.80;;
21215;SDS011;10765;50.954;5.322;2023-08-07T06:51:56;6.23;;;2.67;;
21215;SDS011;10765;50.954;5.322;2023-08-07T06:54:23;5.77;;;2.50;;
21215;SDS011;10765;50.954;5.322;2023-08-07T06:56:50;5.33;;;2.33;;
21215;SDS011;10765;50.954;5.322;2023-08-07T06:59:17;5.80;;;2.30;;
21215;SDS011;10765;50.954;5.322;2023-08-07T07:01:44;5.97;;;2.27;;
21215;SDS011;10765;50.954;5.322;2023-08-07T07:04:12;7.80;;;2.53;;
21215;SDS011;10765;50.954;5.322;2023-08-07T07:06:39;6.17;;;2.43;;
21215;SDS011;10765;50.954;5.322;2023-08-07T07:09:06;5.43;;;2.30;;
21215;SDS011;10765;50.954;5.322;2023-08-07T07:11:33;7.00;;;2.50;;
21215;SDS011;10765;50.954;5.322;2023-08-07T07:14:00;5.40;;;2.20;;
21215;SDS011;10765;50.954;5.322;2023-08-07T07:16:27;4.00;;;2.60;;
21215;SDS011;10765;50.954;5.322;2023-08-07T07:18:54;4.20;;;2.23;;
21215;SDS011;10765;50.954;5.322;2023-08-07T07:21:22;6.37;;;2.60;;
21215;SDS011;10765;50.954;5.322;2023-08-07T07:23:49;5.27;;;2.20;;
21215;SDS011;10765;50.954;5.322;2023-08-07T07:26:18;5.27;;;2.60;;
21215;SDS011;10765;50.954;5.322;2023-08-07T07:28:45;6.23;;;2.20;;
21215;SDS011;10765;50.954;5.322;2023-08-07T07:31:16;5.17;;;2.47;;
21215;SDS011;10765;50.954;5.322;2023-08-07T07:33:43;7.40;;;2.57;;
21215;SDS011;10765;50.954;5.322;2023-08-07T07:36:13;5.13;;;2.00;;
21215;SDS011;10765;50.954;5.322;2023-08-07T07:38:46;7.20;;;2.33;;
21215;SDS011;10765;50.954;5.322;2023-08-07T07:41:13;3.50;;;1.97;;
21215;SDS011;10765;50.954;5.322;2023-08-07T07:43:40;4.60;;;1.90;;
21215;SDS011;10765;50.954;5.322;2023-08-07T07:46:07;4.43;;;2.20;;
21215;SDS011;10765;50.954;5.322;2023-08-07T07:48:34;3.27;;;2.10;;
21215;SDS011;10765;50.954;5.322;2023-08-07T07:51:02;4.93;;;2.50;;
21215;SDS011;10765;50.954;5.322;2023-08-07T07:53:29;5.00;;;2.50;;
21215;SDS011;10765;50.954;5.322;2023-08-07T07:55:58;8.40;;;2.27;;
21215;SDS011;10765;50.954;5.322;2023-08-07T07:58:25;7.80;;;2.37;;
21215;SDS011;10765;50.954;5.322;2023-08-07T08:00:52;3.50;;;2.10;;
21215;SDS011;10765;50.954;5.322;2023-08-07T08:03:19;6.13;;;2.53;;
21215;SDS011;10765;50.954;5.322;2023-08-07T08:05:49;7.87;;;2.67;;
21215;SDS011;10765;50.954;5.322;2023-08-07T08:08:16;5.43;;;2.30;;
21215;SDS011;10765;50.954;5.322;2023-08-07T08:10:43;7.33;;;2.30;;
21215;SDS011;10765;50.954;5.322;2023-08-07T08:13:13;4.50;;;2.30;;
21215;SDS011;10765;50.954;5.322;2023-08-07T08:15:40;5.67;;;2.50;;
21215;SDS011;10765;50.954;5.322;2023-08-07T08:18:07;6.03;;;2.40;;
21215;SDS011;10765;50.954;5.322;2023-08-07T08:20:34;4.10;;;1.93;;
21215;SDS011;10765;50.954;5.322;2023-08-07T08:23:01;4.00;;;2.20;;
21215;SDS011;10765;50.954;5.322;2023-08-07T08:25:28;4.43;;;2.10;;
21215;SDS011;10765;50.954;5.322;2023-08-07T08:27:55;3.83;;;1.90;;
21215;SDS011;10765;50.954;5.322;2023-08-07T08:30:24;3.93;;;2.30;;
21215;SDS011;10765;50.954;5.322;2023-08-07T08:32:50;4.00;;;2.10;;
21215;SDS011;10765;50.954;5.322;2023-08-07T08:35:17;4.73;;;2.00;;
21215;SDS011;10765;50.954;5.322;2023-08-07T08:37:44;5.60;;;2.10;;
21215;SDS011;10765;50.954;5.322;2023-08-07T08:40:11;4.73;;;2.33;;
21215;SDS011;10765;50.954;5.322;2023-08-07T08:42:42;5.53;;;2.20;;
21215;SDS011;10765;50.954;5.322;2023-08-07T08:45:11;3.47;;;1.80;;
21215;SDS011;10765;50.954;5.322;2023-08-07T08:47:41;4.40;;;1.97;;
21215;SDS011;10765;50.954;5.322;2023-08-07T08:50:10;3.40;;;2.10;;
21215;SDS011;10765;50.954;5.322;2023-08-07T08:52:42;3.63;;;1.97;;
21215;SDS011;10765;50.954;5.322;2023-08-07T08:55:11;4.20;;;2.13;;
21215;SDS011;10765;50.954;5.322;2023-08-07T08:57:39;4.80;;;2.30;;
21215;SDS011;10765;50.954;5.322;2023-08-07T09:00:06;6.27;;;2.30;;
21215;SDS011;10765;50.954;5.322;2023-08-07T09:02:44;5.83;;;2.40;;
21215;SDS011;10765;50.954;5.322;2023-08-07T09:05:12;4.87;;;2.17;;
21215;SDS011;10765;50.954;5.322;2023-08-07T09:07:40;4.10;;;2.27;;
21215;SDS011;10765;50.954;5.322;2023-08-07T09:10:07;6.37;;;2.17;;
21215;SDS011;10765;50.954;5.322;2023-08-07T09:12:36;5.40;;;2.30;;
21215;SDS011;10765;50.954;5.322;2023-08-07T09:15:08;5.87;;;2.30;;
21215;SDS011;10765;50.954;5.322;2023-08-07T09:17:38;5.43;;;2.20;;
21215;SDS011;10765;50.954;5.322;2023-08-07T09:20:08;7.53;;;2.80;;
21215;SDS011;10765;50.954;5.322;2023-08-07T09:22:38;5.73;;;2.60;;
21215;SDS011;10765;50.954;5.322;2023-08-07T09:25:06;6.03;;;2.30;;
21215;SDS011;10765;50.954;5.322;2023-08-07T09:27:34;4.80;;;2.30;;
21215;SDS011;10765;50.954;5.322;2023-08-07T09:30:04;6.90;;;2.40;;
21215;SDS011;10765;50.954;5.322;2023-08-07T09:32:32;5.73;;;2.13;;
21215;SDS011;10765;50.954;5.322;2023-08-07T09:35:01;5.87;;;2.50;;
21215;SDS011;10765;50.954;5.322;2023-08-07T09:37:30;5.17;;;2.40;;
21215;SDS011;10765;50.954;5.322;2023-08-07T09:39:59;7.63;;;2.00;;
21215;SDS011;10765;50.954;5.322;2023-08-07T09:42:26;7.17;;;2.10;;
21215;SDS011;10765;50.954;5.322;2023-08-07T09:44:58;4.47;;;2.17;;
21215;SDS011;10765;50.954;5.322;2023-08-07T09:47:25;4.77;;;2.20;;
21215;SDS011;10765;50.954;5.322;2023-08-07T09:49:54;6.77;;;2.57;;
21215;SDS011;10765;50.954;5.322;2023-08-07T09:52:21;5.53;;;2.33;;
21215;SDS011;10765;50.954;5.322;2023-08-07T09:54:52;3.87;;;2.33;;
21215;SDS011;10765;50.954;5.322;2023-08-07T09:57:22;6.10;;;2.37;;
21215;SDS011;10765;50.954;5.322;2023-08-07T09:59:49;4.90;;;2.47;;
21215;SDS011;10765;50.954;5.322;2023-08-07T10:02:16;3.60;;;2.13;;
21215;SDS011;10765;50.954;5.322;2023-08-07T10:04:45;5.17;;;2.27;;
21215;SDS011;10765;50.954;5.322;2023-08-07T10:07:13;6.37;;;2.33;;
21215;SDS011;10765;50.954;5.322;2023-08-07T10:09:41;5.90;;;2.53;;
21215;SDS011;10765;50.954;5.322;2023-08-07T10:12:11;5.03;;;2.30;;
21215;SDS011;10765;50.954;5.322;2023-08-07T10:14:38;4.40;;;2.37;;
21215;SDS011;10765;50.954;5.322;2023-08-07T10:17:06;4.77;;;2.33;;
21215;SDS011;10765;50.954;5.322;2023-08-07T10:19:34;4.53;;;2.20;;
21215;SDS011;10765;50.954;5.322;2023-08-07T10:22:04;4.47;;;2.33;;
21215;SDS011;10765;50.954;5.322;2023-08-07T10:24:31;3.90;;;2.20;;
21215;SDS011;10765;50.954;5.322;2023-08-07T10:27:01;5.33;;;2.63;;
21215;SDS011;10765;50.954;5.322;2023-08-07T10:29:29;3.73;;;2.13;;
21215;SDS011;10765;50.954;5.322;2023-08-07T10:31:58;4.73;;;2.40;;
21215;SDS011;10765;50.954;5.322;2023-08-07T10:34:25;2.90;;;2.10;;
21215;SDS011;10765;50.954;5.322;2023-08-07T10:36:55;2.93;;;1.80;;
21215;SDS011;10765;50.954;5.322;2023-08-07T10:39:21;4.57;;;2.40;;
21215;SDS011;10765;50.954;5.322;2023-08-07T10:41:52;5.67;;;2.27;;
21215;SDS011;10765;50.954;5.322;2023-08-07T10:44:20;5.93;;;2.33;;
21215;SDS011;10765;50.954;5.322;2023-08-07T10:46:50;3.57;;;1.93;;
21215;SDS011;10765;50.954;5.322;2023-08-07T10:49:31;6.13;;;2.13;;
21215;SDS011;10765;50.954;5.322;2023-08-07T10:51:59;4.37;;;2.00;;
21215;SDS011;10765;50.954;5.322;2023-08-07T10:54:29;3.50;;;2.00;;
21215;SDS011;10765;50.954;5.322;2023-08-07T10:56:55;4.57;;;2.10;;
21215;SDS011;10765;50.954;5.322;2023-08-07T10:59:22;3.90;;;1.97;;
21215;SDS011;10765;50.954;5.322;2023-08-07T11:01:54;4.30;;;2.23;;
21215;SDS011;10765;50.954;5.322;2023-08-07T11:04:21;3.83;;;2.10;;
21215;SDS011;10765;50.954;5.322;2023-08-07T11:06:51;4.77;;;2.73;;
21215;SDS011;10765;50.954;5.322;2023-08-07T11:09:18;5.23;;;1.93;;
21215;SDS011;10765;50.954;5.322;2023-08-07T11:11:45;3.00;;;2.10;;
21215;SDS011;10765;50.954;5.322;2023-08-07T11:14:14;7.63;;;2.20;;
21215;SDS011;10765;50.954;5.322;2023-08-07T11:16:42;2.77;;;2.07;;
21215;SDS011;10765;50.954;5.322;2023-08-07T11:19:11;4.27;;;1.87;;
21215;SDS011;10765;50.954;5.322;2023-08-07T11:21:39;4.50;;;2.00;;
21215;SDS011;10765;50.954;5.322;2023-08-07T11:24:07;2.93;;;1.97;;
21215;SDS011;10765;50.954;5.322;2023-08-07T11:26:34;3.27;;;2.07;;
21215;SDS011;10765;50.954;5.322;2023-08-07T11:29:01;2.50;;;1.80;;
21215;SDS011;10765;50.954;5.322;2023-08-07T11:31:28;2.40;;;1.90;;
21215;SDS011;10765;50.954;5.322;2023-08-07T11:33:56;2.93;;;2.10;;
21215;SDS011;10765;50.954;5.322;2023-08-07T11:36:25;3.30;;;2.03;;
21215;SDS011;10765;50.954;5.322;2023-08-07T11:38:52;4.33;;;1.93;;
21215;SDS011;10765;50.954;5.322;2023-08-07T11:41:19;3.43;;;1.70;;
21215;SDS011;10765;50.954;5.322;2023-08-07T11:43:47;6.73;;;2.17;;
21215;SDS011;10765;50.954;5.322;2023-08-07T11:46:15;3.13;;;2.10;;
21215;SDS011;10765;50.954;5.322;2023-08-07T11:48:42;3.37;;;1.90;;
21215;SDS011;10765;50.954;5.322;2023-08-07T11:51:10;3.90;;;1.70;;
21215;SDS011;10765;50.954;5.322;2023-08-07T11:53:39;4.67;;;1.87;;
21215;SDS011;10765;50.954;5.322;2023-08-07T11:56:08;1.80;;;1.60;;
21215;SDS011;10765;50.954;5.322;2023-08-07T11:58:36;3.03;;;1.70;;
21215;SDS011;10765;50.954;5.322;2023-08-07T12:01:04;4.40;;;1.83;;
21215;SDS011;10765;50.954;5.322;2023-08-07T12:03:32;4.93;;;2.00;;
21215;SDS011;10765;50.954;5.322;2023-08-07T12:06:03;1.70;;;1.40;;
21215;SDS011;10765;50.954;5.322;2023-08-07T12:08:31;2.40;;;1.73;;
21215;SDS011;10765;50.954;5.322;2023-08-07T12:11:01;2.97;;;1.43;;
21215;SDS011;10765;50.954;5.322;2023-08-07T12:13:30;2.47;;;1.67;;
21215;SDS011;10765;50.954;5.322;2023-08-07T12:16:00;2.60;;;1.70;;
21215;SDS011;10765;50.954;5.322;2023-08-07T12:18:27;3.37;;;1.50;;
21215;SDS011;10765;50.954;5.322;2023-08-07T12:20:58;2.50;;;1.40;;
21215;SDS011;10765;50.954;5.322;2023-08-07T12:23:27;4.20;;;1.67;;
21215;SDS011;10765;50.954;5.322;2023-08-07T12:25:54;3.07;;;1.77;;
21215;SDS011;10765;50.954;5.322;2023-08-07T12:28:22;3.87;;;1.47;;
21215;SDS011;10765;50.954;5.322;2023-08-07T12:30:50;2.97;;;1.80;;
21215;SDS011;10765;50.954;5.322;2023-08-07T12:33:17;2.23;;;1.57;;
21215;SDS011;10765;50.954;5.322;2023-08-07T12:35:44;3.10;;;1.70;;
21215;SDS011;10765;50.954;5.322;2023-08-07T12:38:12;2.03;;;1.50;;
21215;SDS011;10765;50.954;5.322;2023-08-07T12:40:40;2.70;;;1.50;;
21215;SDS011;10765;50.954;5.322;2023-08-07T12:43:07;3.33;;;1.67;;
21215;SDS011;10765;50.954;5.322;2023-08-07T12:45:35;2.93;;;1.60;;
21215;SDS011;10765;50.954;5.322;2023-08-07T12:48:02;1.60;;;1.33;;
21215;SDS011;10765;50.954;5.322;2023-08-07T12:50:30;2.57;;;1.43;;
21215;SDS011;10765;50.954;5.322;2023-08-07T12:52:57;3.73;;;1.70;;
21215;SDS011;10765;50.954;5.322;2023-08-07T12:55:24;2.43;;;1.53;;
21215;SDS011;10765;50.954;5.322;2023-08-07T12:57:53;2.33;;;1.50;;
21215;SDS011;10765;50.954;5.322;2023-08-07T13:00:20;1.87;;;1.40;;
21215;SDS011;10765;50.954;5.322;2023-08-07T13:02:49;2.07;;;1.40;;
21215;SDS011;10765;50.954;5.322;2023-08-07T13:05:17;3.23;;;1.30;;
21215;SDS011;10765;50.954;5.322;2023-08-07T13:07:45;2.17;;;1.40;;
21215;SDS011;10765;50.954;5.322;2023-08-07T13:10:13;2.13;;;1.43;;
21215;SDS011;10765;50.954;5.322;2023-08-07T13:12:41;2.10;;;1.23;;
21215;SDS011;10765;50.954;5.322;2023-08-07T13:15:09;1.53;;;1.37;;
21215;SDS011;10765;50.954;5.322;2023-08-07T13:17:38;2.30;;;1.20;;
21215;SDS011;10765;50.954;5.322;2023-08-07T13:20:07;1.20;;;1.10;;
21215;SDS011;10765;50.954;5.322;2023-08-07T13:22:35;2.37;;;1.30;;
21215;SDS011;10765;50.954;5.322;2023-08-07T13:25:03;2.10;;;1.20;;
21215;SDS011;10765;50.954;5.322;2023-08-07T13:27:30;1.47;;;1.33;;
21215;SDS011;10765;50.954;5.322;2023-08-07T13:29:58;1.37;;;1.20;;
21215;SDS011;10765;50.954;5.322;2023-08-07T13:32:25;1.53;;;0.97;;
21215;SDS011;10765;50.954;5.322;2023-08-07T13:34:52;1.20;;;1.10;;
21215;SDS011;10765;50.954;5.322;2023-08-07T13:37:20;1.20;;;0.90;;
21215;SDS011;10765;50.954;5.322;2023-08-07T13:39:47;2.03;;;1.37;;
21215;SDS011;10765;50.954;5.322;2023-08-07T13:42:17;1.47;;;1.10;;
21215;SDS011;10765;50.954;5.322;2023-08-07T13:44:44;1.30;;;1.20;;
21215;SDS011;10765;50.954;5.322;2023-08-07T13:47:12;2.53;;;1.33;;
21215;SDS011;10765;50.954;5.322;2023-08-07T13:49:39;1.53;;;1.30;;
21215;SDS011;10765;50.954;5.322;2023-08-07T13:52:07;1.90;;;1.40;;
21215;SDS011;10765;50.954;5.322;2023-08-07T13:54:35;2.73;;;1.20;;
21215;SDS011;10765;50.954;5.322;2023-08-07T13:57:02;1.50;;;1.20;;
21215;SDS011;10765;50.954;5.322;2023-08-07T13:59:30;2.23;;;1.10;;
21215;SDS011;10765;50.954;5.322;2023-08-07T14:01:56;1.97;;;1.10;;
21215;SDS011;10765;50.954;5.322;2023-08-07T14:04:24;1.80;;;1.30;;
21215;SDS011;10765;50.954;5.322;2023-08-07T14:06:51;1.60;;;1.20;;
21215;SDS011;10765;50.954;5.322;2023-08-07T14:09:18;2.57;;;1.30;;
21215;SDS011;10765;50.954;5.322;2023-08-07T14:11:48;1.30;;;1.20;;
21215;SDS011;10765;50.954;5.322;2023-08-07T14:14:15;4.27;;;1.63;;
21215;SDS011;10765;50.954;5.322;2023-08-07T14:16:42;3.07;;;1.57;;
21215;SDS011;10765;50.954;5.322;2023-08-07T14:19:09;1.90;;;1.33;;
21215;SDS011;10765;50.954;5.322;2023-08-07T14:21:36;1.17;;;1.07;;
21215;SDS011;10765;50.954;5.322;2023-08-07T14:24:04;1.20;;;1.10;;
21215;SDS011;10765;50.954;5.322;2023-08-07T14:26:31;1.50;;;1.40;;
21215;SDS011;10765;50.954;5.322;2023-08-07T14:29:00;2.67;;;1.63;;
21215;SDS011;10765;50.954;5.322;2023-08-07T14:31:27;3.10;;;1.80;;
21215;SDS011;10765;50.954;5.322;2023-08-07T14:33:53;2.60;;;1.50;;
21215;SDS011;10765;50.954;5.322;2023-08-07T14:36:21;2.87;;;1.50;;
21215;SDS011;10765;50.954;5.322;2023-08-07T14:38:48;3.97;;;1.70;;
21215;SDS011;10765;50.954;5.322;2023-08-07T14:41:15;3.20;;;1.70;;
21215;SDS011;10765;50.954;5.322;2023-08-07T14:43:44;1.73;;;1.50;;
21215;SDS011;10765;50.954;5.322;2023-08-07T14:46:13;5.53;;;1.53;;
21215;SDS011;10765;50.954;5.322;2023-08-07T14:48:39;1.97;;;1.50;;
21215;SDS011;10765;50.954;5.322;2023-08-07T14:51:06;1.83;;;1.60;;